EGPO - Stornoway, United Kingdom
Distance from station: E 3km
Updated: Thu, 27-Jan-2022 1:50pm GMT
Partly Cloudy
Partly Cloudy
 Wind from W
Wind: W 6 mph , 9 km/h
Temperature: 8°C
Wind Chill: 6°C
Dew Point: 4°C
Humidity: 76%
Barometer: 1024 hPa
Clouds: Partly Cloudy
Visibility: 6 miles , 10 km
Cloud details: Few Clouds 549 m
Partly Cloudy 1463 m
2022/01/27 13:50 EGPO 271350Z 28005KT 9999 FEW018 SCT048 08/04 Q1024
EGPL - Benbecula Island, United Kingdom
Distance from station: SW 102km
Updated: Thu, 27-Jan-2022 1:50pm GMT
Nearby showers, Partly cloudy
Nearby showers, Partly cloudy
 Wind from NW
Wind: NW 21 mph , 33 km/h
Temperature: 8°C
Wind Chill: 3°C
Dew Point: 5°C
Humidity: 82%
Barometer: 1026 hPa
Summary: Nearby Showers
Clouds: Partly Cloudy
Visibility: 6 miles , 10 km
Cloud details: Few Clouds 518 m
Partly Cloudy 701 m
2022/01/27 13:50 EGPL 271350Z 31018KT 9999 VCSH FEW017 SCT023 08/05 Q1026
EGQA - Tain Range (saws, United Kingdom
Distance from station: ESE 149km
Updated: Thu, 27-Jan-2022 1:50pm GMT
Partly Cloudy
Partly Cloudy
 Wind from W
Wind: W 16 mph , 26 km/h
Clouds: Partly Cloudy
Visibility: 6 miles , 10 km
Cloud details: Partly Cloudy 610 m
2022/01/27 13:50 EGQA 271350Z 28014KT 9999 SCT020 07/// Q1022 RMK WHT
 
EGPE - Inverness/Dalcro, United Kingdom
Distance from station: ESE 158km
Updated: Thu, 27-Jan-2022 1:50pm GMT
Partly Cloudy
Partly Cloudy
 Wind from W
Wind: W 14 mph , 22 km/h
Temperature: 8°C
Wind Chill: 4°C
Dew Point: 2°C
Humidity: 66%
Barometer: 1023 hPa
Clouds: Partly Cloudy
Visibility: 6 miles , 10 km
Cloud details: Few Clouds 853 m
Partly Cloudy 1463 m
2022/01/27 13:50 EGPE 271350Z 28012KT 9999 FEW028 SCT048 08/02 Q1023
EGQS - Lossiemouth Raf, United Kingdom
Distance from station: ESE 188km
Updated: Thu, 27-Jan-2022 1:50pm GMT
Few Clouds
Few Clouds
 Wind from WNW
Wind: WNW 17 mph , 28 km/h
Temperature: 7°C
Wind Chill: 3°C
Dew Point: 3°C
Humidity: 76%
Barometer: 1022 hPa
Clouds: Few Clouds
Visibility: 6 miles , 10 km
Cloud details: Few Clouds 610 m
2022/01/27 13:50 EGQS 271350Z 29015KT 9999 FEW020 07/03 Q1022 NOSIG RMK BLU BLU
EGPU - Tiree Island, United Kingdom
Distance from station: S 193km
Updated: Thu, 27-Jan-2022 1:50pm GMT
Partly Cloudy
Partly Cloudy
 Wind from NW
Wind: NW 24 mph , 39 km/h
Temperature: 9°C
Wind Chill: 4°C
Dew Point: 5°C
Humidity: 76%
Barometer: 1027 hPa
Clouds: Partly Cloudy
Visibility: 6 miles , 10 km
Cloud details: Few Clouds 610 m
Partly Cloudy 701 m
2022/01/27 13:50 EGPU 271350Z 31021KT 9999 FEW020 SCT023 09/05 Q1027
 
EGPC - Wick, United Kingdom
Distance from station: E 195km
Updated: Thu, 27-Jan-2022 1:50pm GMT
Nearby showers, Partly cloudy
Nearby showers, Partly cloudy
 Wind from WNW
Wind: WNW 16 mph , 26 km/h
Temperature: 6°C
Wind Chill: 2°C
Dew Point: 2°C
Humidity: 76%
Barometer: 1021 hPa
Summary: Nearby Showers
Clouds: Partly Cloudy
Visibility: 6 miles , 10 km
Cloud details: Partly Cloudy 488 m
2022/01/27 13:50 EGPC 271350Z 30014KT 9999 VCSH SCT016CB 06/02 Q1021
EGEO - Oban Airport, United Kingdom
Distance from station: SSE 203km
Updated: Thu, 27-Jan-2022 1:50pm GMT
Few Clouds
Few Clouds
 Wind from W
Wind: W 15 mph , 24 km/h
Temperature: 8°C
Wind Chill: 4°C
Dew Point: 5°C
Humidity: 82%
Barometer: 1026 hPa
Clouds: Few Clouds
Visibility: 6 miles , 10 km
Cloud details: Few Clouds 762 m
2022/01/27 13:50 EGEO 271350Z 27013KT 9999 FEW025 08/05 Q1026
EGPA - Kirkwall Airport, United Kingdom
Distance from station: ENE 218km
Updated: Thu, 27-Jan-2022 1:50pm GMT
Nearby showers, Partly cloudy
Nearby showers, Partly cloudy
 Wind from NW
Wind: NW 20 mph , 31 km/h
Temperature: 6°C
Wind Chill: 1°C
Dew Point: 0°C
Humidity: 66%
Barometer: 1020 hPa
Summary: Nearby Showers
Clouds: Partly Cloudy
Visibility: 6 miles , 10 km
Cloud details: Few Clouds 732 m
Few Clouds 1097 m
Partly Cloudy 1402 m
2022/01/27 13:50 EGPA 271350Z 32017KT 9999 VCSH FEW024CB FEW036 SCT046 06/00 Q1020
 
EGPD - Aberdeen/Dyce, United Kingdom
Distance from station: ESE 271km
Updated: Thu, 27-Jan-2022 1:50pm GMT
Partly Cloudy
Partly Cloudy
 Wind from WNW
Wind: WNW 16 mph , 26 km/h
Temperature: 5°C
Wind Chill: 1°C
Dew Point: 2°C
Humidity: 81%
Barometer: 1022 hPa
Clouds: Partly Cloudy
Visibility: 6 miles , 10 km
Cloud details: Few Clouds 671 m
Partly Cloudy 1341 m
2022/01/27 13:50 EGPD 271350Z AUTO 30014KT 9999 FEW022 SCT044 05/02 Q1022
EGPI - Islay/Port Ellen, United Kingdom
Distance from station: S 281km
Updated: Thu, 27-Jan-2022 1:50pm GMT
Few Clouds
Few Clouds
 Wind from WNW
Wind: WNW 20 mph , 31 km/h
Temperature: 8°C
Wind Chill: 3°C
Dew Point: 6°C
Humidity: 87%
Barometer: 1027 hPa
Clouds: Few Clouds
Visibility: 6 miles , 10 km
Cloud details: Few Clouds 640 m
2022/01/27 13:50 EGPI 271350Z 30017KT 9999 FEW021 08/06 Q1027
EGPN - Dundee/Riverside, United Kingdom
Distance from station: SE 281km
Updated: Thu, 27-Jan-2022 1:50pm GMT
Few Clouds
Few Clouds
 Wind from W
Wind: W 14 mph , 22 km/h
Temperature: 9°C
Wind Chill: 6°C
Dew Point: 3°C
Humidity: 66%
Barometer: 1023 hPa
Clouds: Few Clouds
Visibility: 6 miles , 10 km
Cloud details: Few Clouds 1372 m
2022/01/27 13:50 EGPN 271350Z 28012KT 9999 FEW045 09/03 Q1023
 
EGPF - Glasgow Airport, United Kingdom
Distance from station: SSE 286km
Updated: Thu, 27-Jan-2022 1:50pm GMT
Mostly Cloudy
Mostly Cloudy
 Wind from W
Wind: W 12 mph , 19 km/h
Temperature: 9°C
Wind Chill: 6°C
Dew Point: 4°C
Humidity: 71%
Barometer: 1025 hPa
Clouds: Mostly Cloudy
Visibility: 6 miles , 10 km
Cloud details: Mostly Cloudy 914 m
2022/01/27 13:50 EGPF 271350Z AUTO 28010KT 9999 BKN030 09/04 Q1025
EGQL - Leuchars Raf, United Kingdom
Distance from station: SE 293km
Updated: Thu, 27-Jan-2022 1:50pm GMT
Few Clouds
Few Clouds
 Wind from WNW
Wind: WNW 17 mph , 28 km/h
Temperature: 9°C
Wind Chill: 6°C
Dew Point: 1°C
Humidity: 58%
Barometer: 1023 hPa
Clouds: Few Clouds
Visibility: 6 miles , 10 km
Cloud details: Few Clouds 762 m
2022/01/27 13:50 EGQL 271350Z 30015KT 9999 FEW025 09/01 Q1023 RMK BLU
EGPH - Edinburgh Airpor, United Kingdom
Distance from station: SE 311km
Updated: Thu, 27-Jan-2022 1:50pm GMT
Few Clouds
Few Clouds
 Wind from W
Wind: W 14 mph , 22 km/h
Temperature: 9°C
Wind Chill: 6°C
Dew Point: 2°C
Humidity: 62%
Barometer: 1024 hPa
Clouds: Few Clouds
Visibility: 6 miles , 10 km
Cloud details: Few Clouds 762 m
2022/01/27 13:50 EGPH 271350Z 28012KT 250V310 9999 FEW025 09/02 Q1024
 
EGEC - Campbeltown, United Kingdom
Distance from station: S 312km
Updated: Thu, 27-Jan-2022 1:50pm GMT
Few Clouds
Few Clouds
 Wind from NW
Wind: NW 20 mph , 31 km/h
Temperature: 10°C
Wind Chill: 7°C
Dew Point: 6°C
Humidity: 76%
Barometer: 1027 hPa
Clouds: Few Clouds
Visibility: 6 miles , 10 km
Cloud details: Few Clouds 732 m
2022/01/27 13:50 EGEC 271350Z 31017KT 9999 FEW024 10/06 Q1027
EGPK - Prestwick(Civ/Na, United Kingdom
Distance from station: SSE 321km
Updated: Thu, 27-Jan-2022 1:50pm GMT
Mostly Cloudy
Mostly Cloudy
 Wind from WNW
Wind: WNW 10 mph , 17 km/h
Temperature: 9°C
Wind Chill: 7°C
Dew Point: 6°C
Humidity: 82%
Barometer: 1026 hPa
Clouds: Mostly Cloudy
Visibility: 6 miles , 10 km
Cloud details: Few Clouds 853 m
Partly Cloudy 1036 m
Mostly Cloudy 1433 m
2022/01/27 13:50 EGPK 271350Z 30009KT 9999 FEW028 SCT034 BKN047 09/06 Q1026
EGPB - Sumburgh (cape), United Kingdom
Distance from station: NE 343km
Updated: Thu, 27-Jan-2022 1:50pm GMT
Nearby showers, Mostly cloudy
Nearby showers, Mostly cloudy
 Wind from NW
Wind: NW 28 mph , 44 km/h
Temperature: 4°C
Wind Chill: -3°C
Dew Point: -3°C
Humidity: 61%
Barometer: 1017 hPa
Summary: Nearby Showers
Clouds: Mostly Cloudy
Visibility: 6 miles , 10 km
Cloud details: Few Clouds 762 m
Mostly Cloudy 1219 m
2022/01/27 13:50 EGPB 271350Z 32024KT 9999 VCSH FEW025 BKN040 04/M03 Q1017 TEMPO SHRA

Metar display script from Saratoga-Weather.org